sensor_id;sensor_type;location;lat;lon;timestamp;P1;P2;P0
60816;PMS5003;51921;51.518;-3.188;2024-03-17T00:02:08;9;7;
60816;PMS5003;51921;51.518;-3.188;2024-03-17T00:04:34;10;9;
60816;PMS5003;51921;51.518;-3.188;2024-03-17T00:06:59;8;7;
60816;PMS5003;51921;51.518;-3.188;2024-03-17T00:09:25;11;9;
60816;PMS5003;51921;51.518;-3.188;2024-03-17T00:11:50;10;8;
60816;PMS5003;51921;51.518;-3.188;2024-03-17T00:14:16;9;8;
60816;PMS5003;51921;51.518;-3.188;2024-03-17T00:16:41;10;7;
60816;PMS5003;51921;51.518;-3.188;2024-03-17T00:19:07;11;8;
60816;PMS5003;51921;51.518;-3.188;2024-03-17T00:21:32;11;9;
60816;PMS5003;51921;51.518;-3.188;2024-03-17T00:23:57;8;7;
60816;PMS5003;51921;51.518;-3.188;2024-03-17T00:26:23;10;9;
60816;PMS5003;51921;51.518;-3.188;2024-03-17T00:28:48;10;8;
60816;PMS5003;51921;51.518;-3.188;2024-03-17T00:31:14;10;9;
60816;PMS5003;51921;51.518;-3.188;2024-03-17T00:33:39;10;8;
60816;PMS5003;51921;51.518;-3.188;2024-03-17T00:36:05;11;11;
60816;PMS5003;51921;51.518;-3.188;2024-03-17T00:38:30;10;9;
60816;PMS5003;51921;51.518;-3.188;2024-03-17T00:40:56;9;9;
60816;PMS5003;51921;51.518;-3.188;2024-03-17T00:43:21;10;9;
60816;PMS5003;51921;51.518;-3.188;2024-03-17T00:45:51;7;7;
60816;PMS5003;51921;51.518;-3.188;2024-03-17T00:48:12;9;9;
60816;PMS5003;51921;51.518;-3.188;2024-03-17T00:50:38;10;9;
60816;PMS5003;51921;51.518;-3.188;2024-03-17T00:53:03;11;8;
60816;PMS5003;51921;51.518;-3.188;2024-03-17T00:55:29;11;9;
60816;PMS5003;51921;51.518;-3.188;2024-03-17T00:57:54;8;7;
60816;PMS5003;51921;51.518;-3.188;2024-03-17T01:00:19;6;6;
60816;PMS5003;51921;51.518;-3.188;2024-03-17T01:02:45;10;9;
60816;PMS5003;51921;51.518;-3.188;2024-03-17T01:05:10;8;7;
60816;PMS5003;51921;51.518;-3.188;2024-03-17T01:07:36;9;9;
60816;PMS5003;51921;51.518;-3.188;2024-03-17T01:10:01;8;8;
60816;PMS5003;51921;51.518;-3.188;2024-03-17T01:12:26;9;8;
60816;PMS5003;51921;51.518;-3.188;2024-03-17T01:14:52;7;7;
60816;PMS5003;51921;51.518;-3.188;2024-03-17T01:17:17;8;7;
60816;PMS5003;51921;51.518;-3.188;2024-03-17T01:19:42;7;6;
60816;PMS5003;51921;51.518;-3.188;2024-03-17T01:22:08;7;6;
60816;PMS5003;51921;51.518;-3.188;2024-03-17T01:24:33;9;7;
60816;PMS5003;51921;51.518;-3.188;2024-03-17T01:26:59;5;5;
60816;PMS5003;51921;51.518;-3.188;2024-03-17T01:29:24;7;6;
60816;PMS5003;51921;51.518;-3.188;2024-03-17T01:31:49;6;5;
60816;PMS5003;51921;51.518;-3.188;2024-03-17T01:34:15;6;5;
60816;PMS5003;51921;51.518;-3.188;2024-03-17T01:36:40;6;5;
60816;PMS5003;51921;51.518;-3.188;2024-03-17T01:39:06;6;5;
60816;PMS5003;51921;51.518;-3.188;2024-03-17T01:41:31;7;6;
60816;PMS5003;51921;51.518;-3.188;2024-03-17T01:43:57;6;5;
60816;PMS5003;51921;51.518;-3.188;2024-03-17T01:46:22;7;7;
60816;PMS5003;51921;51.518;-3.188;2024-03-17T01:48:48;7;6;
60816;PMS5003;51921;51.518;-3.188;2024-03-17T01:51:14;6;5;
60816;PMS5003;51921;51.518;-3.188;2024-03-17T01:53:39;4;4;
60816;PMS5003;51921;51.518;-3.188;2024-03-17T01:56:04;4;3;
60816;PMS5003;51921;51.518;-3.188;2024-03-17T01:58:30;5;4;
60816;PMS5003;51921;51.518;-3.188;2024-03-17T02:00:55;5;5;
60816;PMS5003;51921;51.518;-3.188;2024-03-17T02:03:21;7;6;
60816;PMS5003;51921;51.518;-3.188;2024-03-17T02:05:46;5;4;
60816;PMS5003;51921;51.518;-3.188;2024-03-17T02:08:11;6;5;
60816;PMS5003;51921;51.518;-3.188;2024-03-17T02:10:37;6;6;
60816;PMS5003;51921;51.518;-3.188;2024-03-17T02:13:03;8;8;
60816;PMS5003;51921;51.518;-3.188;2024-03-17T02:15:28;6;6;
60816;PMS5003;51921;51.518;-3.188;2024-03-17T02:17:53;8;7;
60816;PMS5003;51921;51.518;-3.188;2024-03-17T02:20:19;5;5;
60816;PMS5003;51921;51.518;-3.188;2024-03-17T02:22:44;8;7;
60816;PMS5003;51921;51.518;-3.188;2024-03-17T02:25:10;10;9;
60816;PMS5003;51921;51.518;-3.188;2024-03-17T02:27:35;9;8;
60816;PMS5003;51921;51.518;-3.188;2024-03-17T02:30:01;8;8;
60816;PMS5003;51921;51.518;-3.188;2024-03-17T02:32:26;6;6;
60816;PMS5003;51921;51.518;-3.188;2024-03-17T02:34:51;5;5;
60816;PMS5003;51921;51.518;-3.188;2024-03-17T02:37:16;5;5;
60816;PMS5003;51921;51.518;-3.188;2024-03-17T02:39:42;5;5;
60816;PMS5003;51921;51.518;-3.188;2024-03-17T02:42:08;6;6;
60816;PMS5003;51921;51.518;-3.188;2024-03-17T02:44:34;8;7;
60816;PMS5003;51921;51.518;-3.188;2024-03-17T02:46:58;6;6;
60816;PMS5003;51921;51.518;-3.188;2024-03-17T02:49:24;6;5;
60816;PMS5003;51921;51.518;-3.188;2024-03-17T02:51:49;4;4;
60816;PMS5003;51921;51.518;-3.188;2024-03-17T02:54:15;5;5;
60816;PMS5003;51921;51.518;-3.188;2024-03-17T02:56:40;7;6;
60816;PMS5003;51921;51.518;-3.188;2024-03-17T02:59:06;7;6;
60816;PMS5003;51921;51.518;-3.188;2024-03-17T03:01:31;8;7;
60816;PMS5003;51921;51.518;-3.188;2024-03-17T03:03:56;5;5;
60816;PMS5003;51921;51.518;-3.188;2024-03-17T03:06:22;7;7;
60816;PMS5003;51921;51.518;-3.188;2024-03-17T03:08:47;5;5;
60816;PMS5003;51921;51.518;-3.188;2024-03-17T03:11:13;8;7;
60816;PMS5003;51921;51.518;-3.188;2024-03-17T03:13:38;5;5;
60816;PMS5003;51921;51.518;-3.188;2024-03-17T03:16:04;6;5;
60816;PMS5003;51921;51.518;-3.188;2024-03-17T03:18:29;10;7;
60816;PMS5003;51921;51.518;-3.188;2024-03-17T03:20:54;7;7;
60816;PMS5003;51921;51.518;-3.188;2024-03-17T03:23:20;9;7;
60816;PMS5003;51921;51.518;-3.188;2024-03-17T03:25:45;8;6;
60816;PMS5003;51921;51.518;-3.188;2024-03-17T03:28:10;5;5;
60816;PMS5003;51921;51.518;-3.188;2024-03-17T03:30:36;8;7;
60816;PMS5003;51921;51.518;-3.188;2024-03-17T03:33:01;7;5;
60816;PMS5003;51921;51.518;-3.188;2024-03-17T03:35:27;6;5;
60816;PMS5003;51921;51.518;-3.188;2024-03-17T03:37:52;7;5;
60816;PMS5003;51921;51.518;-3.188;2024-03-17T03:40:17;6;5;
60816;PMS5003;51921;51.518;-3.188;2024-03-17T03:42:42;7;7;
60816;PMS5003;51921;51.518;-3.188;2024-03-17T03:45:08;8;7;
60816;PMS5003;51921;51.518;-3.188;2024-03-17T03:47:33;13;11;
60816;PMS5003;51921;51.518;-3.188;2024-03-17T03:49:59;10;9;
60816;PMS5003;51921;51.518;-3.188;2024-03-17T03:52:24;10;9;
60816;PMS5003;51921;51.518;-3.188;2024-03-17T03:54:50;10;8;
60816;PMS5003;51921;51.518;-3.188;2024-03-17T03:57:15;8;8;
60816;PMS5003;51921;51.518;-3.188;2024-03-17T03:59:41;10;10;
60816;PMS5003;51921;51.518;-3.188;2024-03-17T04:02:06;9;8;
60816;PMS5003;51921;51.518;-3.188;2024-03-17T04:04:31;12;10;
60816;PMS5003;51921;51.518;-3.188;2024-03-17T04:06:57;10;9;
60816;PMS5003;51921;51.518;-3.188;2024-03-17T04:09:23;11;8;
60816;PMS5003;51921;51.518;-3.188;2024-03-17T04:11:48;9;8;
60816;PMS5003;51921;51.518;-3.188;2024-03-17T04:14:13;9;9;
60816;PMS5003;51921;51.518;-3.188;2024-03-17T04:16:39;10;9;
60816;PMS5003;51921;51.518;-3.188;2024-03-17T04:19:04;9;9;
60816;PMS5003;51921;51.518;-3.188;2024-03-17T04:21:29;12;9;
60816;PMS5003;51921;51.518;-3.188;2024-03-17T04:23:54;10;9;
60816;PMS5003;51921;51.518;-3.188;2024-03-17T04:26:20;10;9;
60816;PMS5003;51921;51.518;-3.188;2024-03-17T04:28:45;9;8;
60816;PMS5003;51921;51.518;-3.188;2024-03-17T04:31:11;10;10;
60816;PMS5003;51921;51.518;-3.188;2024-03-17T04:33:37;10;9;
60816;PMS5003;51921;51.518;-3.188;2024-03-17T04:36:01;8;8;
60816;PMS5003;51921;51.518;-3.188;2024-03-17T04:38:27;8;8;
60816;PMS5003;51921;51.518;-3.188;2024-03-17T04:40:52;8;8;
60816;PMS5003;51921;51.518;-3.188;2024-03-17T04:43:18;11;10;
60816;PMS5003;51921;51.518;-3.188;2024-03-17T04:45:43;9;8;
60816;PMS5003;51921;51.518;-3.188;2024-03-17T04:48:08;9;9;
60816;PMS5003;51921;51.518;-3.188;2024-03-17T04:50:34;12;12;
60816;PMS5003;51921;51.518;-3.188;2024-03-17T04:53:00;9;8;
60816;PMS5003;51921;51.518;-3.188;2024-03-17T04:55:25;10;10;
60816;PMS5003;51921;51.518;-3.188;2024-03-17T04:57:51;8;7;
60816;PMS5003;51921;51.518;-3.188;2024-03-17T05:00:16;10;9;
60816;PMS5003;51921;51.518;-3.188;2024-03-17T05:02:41;8;8;
60816;PMS5003;51921;51.518;-3.188;2024-03-17T05:05:07;8;7;
60816;PMS5003;51921;51.518;-3.188;2024-03-17T05:07:33;10;8;
60816;PMS5003;51921;51.518;-3.188;2024-03-17T05:09:58;7;7;
60816;PMS5003;51921;51.518;-3.188;2024-03-17T05:12:23;8;7;
60816;PMS5003;51921;51.518;-3.188;2024-03-17T05:14:49;9;8;
60816;PMS5003;51921;51.518;-3.188;2024-03-17T05:17:14;8;6;
60816;PMS5003;51921;51.518;-3.188;2024-03-17T05:19:40;7;5;
60816;PMS5003;51921;51.518;-3.188;2024-03-17T05:22:05;7;6;
60816;PMS5003;51921;51.518;-3.188;2024-03-17T05:24:31;10;9;
60816;PMS5003;51921;51.518;-3.188;2024-03-17T05:26:56;7;7;
60816;PMS5003;51921;51.518;-3.188;2024-03-17T05:29:22;6;6;
60816;PMS5003;51921;51.518;-3.188;2024-03-17T05:31:47;8;7;
60816;PMS5003;51921;51.518;-3.188;2024-03-17T05:34:13;7;6;
60816;PMS5003;51921;51.518;-3.188;2024-03-17T05:36:38;5;5;
60816;PMS5003;51921;51.518;-3.188;2024-03-17T05:39:04;6;6;
60816;PMS5003;51921;51.518;-3.188;2024-03-17T05:41:29;7;7;
60816;PMS5003;51921;51.518;-3.188;2024-03-17T05:43:55;6;5;
60816;PMS5003;51921;51.518;-3.188;2024-03-17T05:46:20;4;4;
60816;PMS5003;51921;51.518;-3.188;2024-03-17T05:48:46;5;5;
60816;PMS5003;51921;51.518;-3.188;2024-03-17T05:51:11;5;4;
60816;PMS5003;51921;51.518;-3.188;2024-03-17T05:53:37;3;3;
60816;PMS5003;51921;51.518;-3.188;2024-03-17T05:56:02;4;4;
60816;PMS5003;51921;51.518;-3.188;2024-03-17T05:58:28;4;3;
60816;PMS5003;51921;51.518;-3.188;2024-03-17T06:00:53;4;2;
60816;PMS5003;51921;51.518;-3.188;2024-03-17T06:03:18;4;4;
60816;PMS5003;51921;51.518;-3.188;2024-03-17T06:05:43;5;5;
60816;PMS5003;51921;51.518;-3.188;2024-03-17T06:08:09;4;3;
60816;PMS5003;51921;51.518;-3.188;2024-03-17T06:10:35;4;4;
60816;PMS5003;51921;51.518;-3.188;2024-03-17T06:12:59;4;4;
60816;PMS5003;51921;51.518;-3.188;2024-03-17T06:15:26;4;4;
60816;PMS5003;51921;51.518;-3.188;2024-03-17T06:17:50;4;4;
60816;PMS5003;51921;51.518;-3.188;2024-03-17T06:20:16;4;4;
60816;PMS5003;51921;51.518;-3.188;2024-03-17T06:22:41;4;3;
60816;PMS5003;51921;51.518;-3.188;2024-03-17T06:25:07;3;2;
60816;PMS5003;51921;51.518;-3.188;2024-03-17T06:27:32;4;4;
60816;PMS5003;51921;51.518;-3.188;2024-03-17T06:29:57;3;3;
60816;PMS5003;51921;51.518;-3.188;2024-03-17T06:32:23;3;3;
60816;PMS5003;51921;51.518;-3.188;2024-03-17T06:34:48;3;3;
60816;PMS5003;51921;51.518;-3.188;2024-03-17T06:37:14;4;4;
60816;PMS5003;51921;51.518;-3.188;2024-03-17T06:39:39;3;3;
60816;PMS5003;51921;51.518;-3.188;2024-03-17T06:42:05;3;3;
60816;PMS5003;51921;51.518;-3.188;2024-03-17T06:44:30;3;3;
60816;PMS5003;51921;51.518;-3.188;2024-03-17T06:46:55;5;4;
60816;PMS5003;51921;51.518;-3.188;2024-03-17T06:49:21;6;2;
60816;PMS5003;51921;51.518;-3.188;2024-03-17T06:51:46;2;2;
60816;PMS5003;51921;51.518;-3.188;2024-03-17T06:54:12;4;4;
60816;PMS5003;51921;51.518;-3.188;2024-03-17T06:56:37;5;5;
60816;PMS5003;51921;51.518;-3.188;2024-03-17T06:59:02;4;3;
60816;PMS5003;51921;51.518;-3.188;2024-03-17T07:01:28;5;5;
60816;PMS5003;51921;51.518;-3.188;2024-03-17T07:03:53;4;3;
60816;PMS5003;51921;51.518;-3.188;2024-03-17T07:06:19;5;4;
60816;PMS5003;51921;51.518;-3.188;2024-03-17T07:08:44;6;4;
60816;PMS5003;51921;51.518;-3.188;2024-03-17T07:11:09;6;6;
60816;PMS5003;51921;51.518;-3.188;2024-03-17T07:13:35;6;5;
60816;PMS5003;51921;51.518;-3.188;2024-03-17T07:16:00;4;4;
60816;PMS5003;51921;51.518;-3.188;2024-03-17T07:18:26;7;5;
60816;PMS5003;51921;51.518;-3.188;2024-03-17T07:20:51;6;5;
60816;PMS5003;51921;51.518;-3.188;2024-03-17T07:23:16;5;4;
60816;PMS5003;51921;51.518;-3.188;2024-03-17T07:25:42;4;4;
60816;PMS5003;51921;51.518;-3.188;2024-03-17T07:28:07;5;5;
60816;PMS5003;51921;51.518;-3.188;2024-03-17T07:30:32;6;6;
60816;PMS5003;51921;51.518;-3.188;2024-03-17T07:32:58;5;5;
60816;PMS5003;51921;51.518;-3.188;2024-03-17T07:35:23;4;4;
60816;PMS5003;51921;51.518;-3.188;2024-03-17T07:37:49;4;4;
60816;PMS5003;51921;51.518;-3.188;2024-03-17T07:40:14;5;3;
60816;PMS5003;51921;51.518;-3.188;2024-03-17T07:42:39;6;5;
60816;PMS5003;51921;51.518;-3.188;2024-03-17T07:45:05;5;5;
60816;PMS5003;51921;51.518;-3.188;2024-03-17T07:47:30;3;3;
60816;PMS5003;51921;51.518;-3.188;2024-03-17T07:49:56;4;4;
60816;PMS5003;51921;51.518;-3.188;2024-03-17T07:52:21;4;4;
60816;PMS5003;51921;51.518;-3.188;2024-03-17T07:54:46;3;3;
60816;PMS5003;51921;51.518;-3.188;2024-03-17T07:57:12;4;4;
60816;PMS5003;51921;51.518;-3.188;2024-03-17T07:59:37;5;5;
60816;PMS5003;51921;51.518;-3.188;2024-03-17T08:02:02;3;3;
60816;PMS5003;51921;51.518;-3.188;2024-03-17T08:04:28;3;3;
60816;PMS5003;51921;51.518;-3.188;2024-03-17T08:06:53;3;3;
60816;PMS5003;51921;51.518;-3.188;2024-03-17T08:09:19;5;4;
60816;PMS5003;51921;51.518;-3.188;2024-03-17T08:11:44;4;4;
60816;PMS5003;51921;51.518;-3.188;2024-03-17T08:14:09;3;3;
60816;PMS5003;51921;51.518;-3.188;2024-03-17T08:16:35;3;3;
60816;PMS5003;51921;51.518;-3.188;2024-03-17T08:19:00;2;2;
60816;PMS5003;51921;51.518;-3.188;2024-03-17T08:21:26;3;3;
60816;PMS5003;51921;51.518;-3.188;2024-03-17T08:23:51;2;1;
60816;PMS5003;51921;51.518;-3.188;2024-03-17T08:26:16;2;2;
60816;PMS5003;51921;51.518;-3.188;2024-03-17T08:28:42;3;2;
60816;PMS5003;51921;51.518;-3.188;2024-03-17T08:31:07;2;2;
60816;PMS5003;51921;51.518;-3.188;2024-03-17T08:33:33;3;2;
60816;PMS5003;51921;51.518;-3.188;2024-03-17T08:35:59;1;1;
60816;PMS5003;51921;51.518;-3.188;2024-03-17T08:38:24;2;2;
60816;PMS5003;51921;51.518;-3.188;2024-03-17T08:40:49;1;1;
60816;PMS5003;51921;51.518;-3.188;2024-03-17T08:43:14;2;2;
60816;PMS5003;51921;51.518;-3.188;2024-03-17T08:45:40;1;1;
60816;PMS5003;51921;51.518;-3.188;2024-03-17T08:48:06;1;1;
60816;PMS5003;51921;51.518;-3.188;2024-03-17T08:50:31;2;2;
60816;PMS5003;51921;51.518;-3.188;2024-03-17T08:52:56;1;1;
60816;PMS5003;51921;51.518;-3.188;2024-03-17T08:55:21;2;2;
60816;PMS5003;51921;51.518;-3.188;2024-03-17T08:57:47;2;2;
60816;PMS5003;51921;51.518;-3.188;2024-03-17T09:00:13;1;1;
60816;PMS5003;51921;51.518;-3.188;2024-03-17T09:02:38;1;1;
60816;PMS5003;51921;51.518;-3.188;2024-03-17T09:05:03;0;0;
60816;PMS5003;51921;51.518;-3.188;2024-03-17T09:07:28;0;0;
60816;PMS5003;51921;51.518;-3.188;2024-03-17T09:09:54;0;0;
60816;PMS5003;51921;51.518;-3.188;2024-03-17T09:12:19;1;1;
60816;PMS5003;51921;51.518;-3.188;2024-03-17T09:14:46;0;0;
60816;PMS5003;51921;51.518;-3.188;2024-03-17T09:17:10;1;1;
60816;PMS5003;51921;51.518;-3.188;2024-03-17T09:19:35;0;0;
60816;PMS5003;51921;51.518;-3.188;2024-03-17T09:22:01;1;0;
60816;PMS5003;51921;51.518;-3.188;2024-03-17T09:24:26;1;1;
60816;PMS5003;51921;51.518;-3.188;2024-03-17T09:26:52;0;0;
60816;PMS5003;51921;51.518;-3.188;2024-03-17T09:29:17;1;1;
60816;PMS5003;51921;51.518;-3.188;2024-03-17T09:31:42;0;0;
60816;PMS5003;51921;51.518;-3.188;2024-03-17T09:34:08;1;1;
60816;PMS5003;51921;51.518;-3.188;2024-03-17T09:36:33;2;1;
60816;PMS5003;51921;51.518;-3.188;2024-03-17T09:38:59;1;1;
60816;PMS5003;51921;51.518;-3.188;2024-03-17T09:41:24;1;1;
60816;PMS5003;51921;51.518;-3.188;2024-03-17T09:43:49;0;0;
60816;PMS5003;51921;51.518;-3.188;2024-03-17T09:46:15;0;0;
60816;PMS5003;51921;51.518;-3.188;2024-03-17T09:48:40;1;0;
60816;PMS5003;51921;51.518;-3.188;2024-03-17T09:51:05;0;0;
60816;PMS5003;51921;51.518;-3.188;2024-03-17T09:53:31;1;1;
60816;PMS5003;51921;51.518;-3.188;2024-03-17T09:55:57;2;2;
60816;PMS5003;51921;51.518;-3.188;2024-03-17T09:58:21;1;1;
60816;PMS5003;51921;51.518;-3.188;2024-03-17T10:00:47;1;1;
60816;PMS5003;51921;51.518;-3.188;2024-03-17T10:03:12;1;1;
60816;PMS5003;51921;51.518;-3.188;2024-03-17T10:05:38;0;0;
60816;PMS5003;51921;51.518;-3.188;2024-03-17T10:08:03;2;1;
60816;PMS5003;51921;51.518;-3.188;2024-03-17T10:10:28;2;1;
60816;PMS5003;51921;51.518;-3.188;2024-03-17T10:12:54;1;1;
60816;PMS5003;51921;51.518;-3.188;2024-03-17T10:15:19;1;0;
60816;PMS5003;51921;51.518;-3.188;2024-03-17T10:17:45;1;1;
60816;PMS5003;51921;51.518;-3.188;2024-03-17T10:20:11;2;2;
60816;PMS5003;51921;51.518;-3.188;2024-03-17T10:22:35;0;0;
60816;PMS5003;51921;51.518;-3.188;2024-03-17T10:25:01;2;1;
60816;PMS5003;51921;51.518;-3.188;2024-03-17T10:27:26;0;0;
60816;PMS5003;51921;51.518;-3.188;2024-03-17T10:29:52;1;1;
60816;PMS5003;51921;51.518;-3.188;2024-03-17T10:32:17;2;0;
60816;PMS5003;51921;51.518;-3.188;2024-03-17T10:34:42;2;1;
60816;PMS5003;51921;51.518;-3.188;2024-03-17T10:37:09;1;1;
60816;PMS5003;51921;51.518;-3.188;2024-03-17T10:39:33;1;1;
60816;PMS5003;51921;51.518;-3.188;2024-03-17T10:41:59;1;1;
60816;PMS5003;51921;51.518;-3.188;2024-03-17T10:44:25;1;1;
60816;PMS5003;51921;51.518;-3.188;2024-03-17T10:46:49;2;1;
60816;PMS5003;51921;51.518;-3.188;2024-03-17T10:49:15;2;1;
60816;PMS5003;51921;51.518;-3.188;2024-03-17T10:51:40;3;1;
60816;PMS5003;51921;51.518;-3.188;2024-03-17T10:54:06;4;3;
60816;PMS5003;51921;51.518;-3.188;2024-03-17T10:56:31;1;0;
60816;PMS5003;51921;51.518;-3.188;2024-03-17T10:58:56;2;2;
60816;PMS5003;51921;51.518;-3.188;2024-03-17T11:01:22;2;1;
60816;PMS5003;51921;51.518;-3.188;2024-03-17T11:03:47;1;1;
60816;PMS5003;51921;51.518;-3.188;2024-03-17T11:06:13;3;1;
60816;PMS5003;51921;51.518;-3.188;2024-03-17T11:08:38;3;2;
60816;PMS5003;51921;51.518;-3.188;2024-03-17T11:11:03;2;2;
60816;PMS5003;51921;51.518;-3.188;2024-03-17T11:13:29;2;2;
60816;PMS5003;51921;51.518;-3.188;2024-03-17T11:15:55;3;3;
60816;PMS5003;51921;51.518;-3.188;2024-03-17T11:23:10;4;3;
60816;PMS5003;51921;51.518;-3.188;2024-03-17T11:25:37;6;5;
60816;PMS5003;51921;51.518;-3.188;2024-03-17T11:28:02;2;2;
60816;PMS5003;51921;51.518;-3.188;2024-03-17T11:32:52;2;2;
60816;PMS5003;51921;51.518;-3.188;2024-03-17T11:35:22;3;2;
60816;PMS5003;51921;51.518;-3.188;2024-03-17T11:37:43;3;2;
60816;PMS5003;51921;51.518;-3.188;2024-03-17T11:42:34;3;2;
60816;PMS5003;51921;51.518;-3.188;2024-03-17T11:45:00;4;3;
60816;PMS5003;51921;51.518;-3.188;2024-03-17T11:49:50;6;4;
60816;PMS5003;51921;51.518;-3.188;2024-03-17T11:52:15;5;5;
60816;PMS5003;51921;51.518;-3.188;2024-03-17T11:54:41;4;4;
60816;PMS5003;51921;51.518;-3.188;2024-03-17T11:57:07;6;4;
60816;PMS5003;51921;51.518;-3.188;2024-03-17T11:59:31;5;4;
60816;PMS5003;51921;51.518;-3.188;2024-03-17T12:01:57;7;7;
60816;PMS5003;51921;51.518;-3.188;2024-03-17T12:04:23;3;2;
60816;PMS5003;51921;51.518;-3.188;2024-03-17T12:06:48;5;3;
60816;PMS5003;51921;51.518;-3.188;2024-03-17T12:09:17;5;4;
60816;PMS5003;51921;51.518;-3.188;2024-03-17T12:11:38;6;3;
60816;PMS5003;51921;51.518;-3.188;2024-03-17T12:16:29;2;1;
60816;PMS5003;51921;51.518;-3.188;2024-03-17T12:18:55;2;1;
60816;PMS5003;51921;51.518;-3.188;2024-03-17T12:21:20;0;0;
60816;PMS5003;51921;51.518;-3.188;2024-03-17T12:23:45;0;0;
60816;PMS5003;51921;51.518;-3.188;2024-03-17T12:26:11;1;0;
60816;PMS5003;51921;51.518;-3.188;2024-03-17T12:28:36;0;0;
60816;PMS5003;51921;51.518;-3.188;2024-03-17T12:31:02;0;0;
60816;PMS5003;51921;51.518;-3.188;2024-03-17T12:33:27;0;0;
60816;PMS5003;51921;51.518;-3.188;2024-03-17T12:35:52;0;0;
60816;PMS5003;51921;51.518;-3.188;2024-03-17T12:38:20;1;1;
60816;PMS5003;51921;51.518;-3.188;2024-03-17T12:40:43;1;1;
60816;PMS5003;51921;51.518;-3.188;2024-03-17T12:43:09;1;1;
60816;PMS5003;51921;51.518;-3.188;2024-03-17T12:45:34;1;1;
60816;PMS5003;51921;51.518;-3.188;2024-03-17T12:48:00;0;0;
60816;PMS5003;51921;51.518;-3.188;2024-03-17T12:50:25;0;0;
60816;PMS5003;51921;51.518;-3.188;2024-03-17T12:52:52;0;0;
60816;PMS5003;51921;51.518;-3.188;2024-03-17T12:55:17;5;5;
60816;PMS5003;51921;51.518;-3.188;2024-03-17T12:57:41;2;1;
60816;PMS5003;51921;51.518;-3.188;2024-03-17T13:02:32;2;1;
60816;PMS5003;51921;51.518;-3.188;2024-03-17T13:05:07;1;1;
60816;PMS5003;51921;51.518;-3.188;2024-03-17T13:07:22;3;3;
60816;PMS5003;51921;51.518;-3.188;2024-03-17T13:09:48;1;0;
60816;PMS5003;51921;51.518;-3.188;2024-03-17T13:12:14;1;1;
60816;PMS5003;51921;51.518;-3.188;2024-03-17T13:14:39;1;1;
60816;PMS5003;51921;51.518;-3.188;2024-03-17T13:17:04;2;2;
60816;PMS5003;51921;51.518;-3.188;2024-03-17T13:19:30;1;0;
60816;PMS5003;51921;51.518;-3.188;2024-03-17T13:21:55;1;0;
60816;PMS5003;51921;51.518;-3.188;2024-03-17T13:24:20;2;2;
60816;PMS5003;51921;51.518;-3.188;2024-03-17T13:26:46;2;1;
60816;PMS5003;51921;51.518;-3.188;2024-03-17T13:29:11;2;2;
60816;PMS5003;51921;51.518;-3.188;2024-03-17T13:31:37;2;1;
60816;PMS5003;51921;51.518;-3.188;2024-03-17T13:34:02;1;1;
60816;PMS5003;51921;51.518;-3.188;2024-03-17T13:36:27;1;1;
60816;PMS5003;51921;51.518;-3.188;2024-03-17T13:38:53;4;3;
60816;PMS5003;51921;51.518;-3.188;2024-03-17T13:41:18;1;1;
60816;PMS5003;51921;51.518;-3.188;2024-03-17T13:43:43;1;1;
60816;PMS5003;51921;51.518;-3.188;2024-03-17T13:46:09;3;1;
60816;PMS5003;51921;51.518;-3.188;2024-03-17T13:48:34;2;1;
60816;PMS5003;51921;51.518;-3.188;2024-03-17T13:51:00;3;2;
60816;PMS5003;51921;51.518;-3.188;2024-03-17T13:53:25;2;2;
60816;PMS5003;51921;51.518;-3.188;2024-03-17T13:55:50;4;3;
60816;PMS5003;51921;51.518;-3.188;2024-03-17T13:58:16;3;2;
60816;PMS5003;51921;51.518;-3.188;2024-03-17T14:00:41;6;6;
60816;PMS5003;51921;51.518;-3.188;2024-03-17T14:03:07;5;5;
60816;PMS5003;51921;51.518;-3.188;2024-03-17T14:05:32;4;4;
60816;PMS5003;51921;51.518;-3.188;2024-03-17T14:07:57;2;1;
60816;PMS5003;51921;51.518;-3.188;2024-03-17T14:10:23;5;3;
60816;PMS5003;51921;51.518;-3.188;2024-03-17T14:12:48;6;4;
60816;PMS5003;51921;51.518;-3.188;2024-03-17T14:15:14;5;3;
60816;PMS5003;51921;51.518;-3.188;2024-03-17T14:17:39;2;1;
60816;PMS5003;51921;51.518;-3.188;2024-03-17T14:20:05;3;3;
60816;PMS5003;51921;51.518;-3.188;2024-03-17T14:22:30;5;2;
60816;PMS5003;51921;51.518;-3.188;2024-03-17T14:24:55;3;3;
60816;PMS5003;51921;51.518;-3.188;2024-03-17T14:27:21;9;6;
60816;PMS5003;51921;51.518;-3.188;2024-03-17T14:29:46;1;0;
60816;PMS5003;51921;51.518;-3.188;2024-03-17T14:32:12;5;2;
60816;PMS5003;51921;51.518;-3.188;2024-03-17T14:34:37;2;2;
60816;PMS5003;51921;51.518;-3.188;2024-03-17T14:37:03;5;2;
60816;PMS5003;51921;51.518;-3.188;2024-03-17T14:39:28;1;1;
60816;PMS5003;51921;51.518;-3.188;2024-03-17T14:41:54;4;2;
60816;PMS5003;51921;51.518;-3.188;2024-03-17T14:44:19;2;2;
60816;PMS5003;51921;51.518;-3.188;2024-03-17T14:46:44;5;2;
60816;PMS5003;51921;51.518;-3.188;2024-03-17T14:49:10;4;3;
60816;PMS5003;51921;51.518;-3.188;2024-03-17T14:51:35;3;2;
60816;PMS5003;51921;51.518;-3.188;2024-03-17T14:54:01;6;3;
60816;PMS5003;51921;51.518;-3.188;2024-03-17T14:56:26;3;2;
60816;PMS5003;51921;51.518;-3.188;2024-03-17T14:58:51;3;2;
60816;PMS5003;51921;51.518;-3.188;2024-03-17T15:01:17;3;2;
60816;PMS5003;51921;51.518;-3.188;2024-03-17T15:03:42;3;3;
60816;PMS5003;51921;51.518;-3.188;2024-03-17T15:06:10;4;2;
60816;PMS5003;51921;51.518;-3.188;2024-03-17T15:08:33;3;3;
60816;PMS5003;51921;51.518;-3.188;2024-03-17T15:10:59;2;1;
60816;PMS5003;51921;51.518;-3.188;2024-03-17T15:13:24;3;2;
60816;PMS5003;51921;51.518;-3.188;2024-03-17T15:15:49;2;1;
60816;PMS5003;51921;51.518;-3.188;2024-03-17T15:18:15;4;3;
60816;PMS5003;51921;51.518;-3.188;2024-03-17T15:20:40;7;6;
60816;PMS5003;51921;51.518;-3.188;2024-03-17T15:23:06;4;2;
60816;PMS5003;51921;51.518;-3.188;2024-03-17T15:25:32;4;4;
60816;PMS5003;51921;51.518;-3.188;2024-03-17T15:27:58;5;4;
60816;PMS5003;51921;51.518;-3.188;2024-03-17T15:30:23;5;2;
60816;PMS5003;51921;51.518;-3.188;2024-03-17T15:32:48;4;2;
60816;PMS5003;51921;51.518;-3.188;2024-03-17T15:35:14;6;3;
60816;PMS5003;51921;51.518;-3.188;2024-03-17T15:37:40;3;2;
60816;PMS5003;51921;51.518;-3.188;2024-03-17T15:40:05;3;3;
60816;PMS5003;51921;51.518;-3.188;2024-03-17T15:42:30;4;2;
60816;PMS5003;51921;51.518;-3.188;2024-03-17T15:44:55;2;1;
60816;PMS5003;51921;51.518;-3.188;2024-03-17T15:47:21;3;2;
60816;PMS5003;51921;51.518;-3.188;2024-03-17T15:49:46;8;6;
60816;PMS5003;51921;51.518;-3.188;2024-03-17T15:52:11;3;2;
60816;PMS5003;51921;51.518;-3.188;2024-03-17T15:54:37;3;1;
60816;PMS5003;51921;51.518;-3.188;2024-03-17T15:57:02;4;3;
60816;PMS5003;51921;51.518;-3.188;2024-03-17T15:59:27;3;2;
60816;PMS5003;51921;51.518;-3.188;2024-03-17T16:01:53;5;3;
60816;PMS5003;51921;51.518;-3.188;2024-03-17T16:04:18;3;3;
60816;PMS5003;51921;51.518;-3.188;2024-03-17T16:06:44;6;3;
60816;PMS5003;51921;51.518;-3.188;2024-03-17T16:09:09;5;2;
60816;PMS5003;51921;51.518;-3.188;2024-03-17T16:11:34;4;4;
60816;PMS5003;51921;51.518;-3.188;2024-03-17T16:14:00;3;2;
60816;PMS5003;51921;51.518;-3.188;2024-03-17T16:16:25;4;3;
60816;PMS5003;51921;51.518;-3.188;2024-03-17T16:18:51;3;3;
60816;PMS5003;51921;51.518;-3.188;2024-03-17T16:21:16;2;2;
60816;PMS5003;51921;51.518;-3.188;2024-03-17T16:23:43;3;3;
60816;PMS5003;51921;51.518;-3.188;2024-03-17T16:26:07;6;4;
60816;PMS5003;51921;51.518;-3.188;2024-03-17T16:28:32;7;3;
60816;PMS5003;51921;51.518;-3.188;2024-03-17T16:30:58;7;3;
60816;PMS5003;51921;51.518;-3.188;2024-03-17T16:33:23;3;2;
60816;PMS5003;51921;51.518;-3.188;2024-03-17T16:35:49;3;3;
60816;PMS5003;51921;51.518;-3.188;2024-03-17T16:38:14;5;4;